createdAt,value
2019-03-21T00:02:04.130Z,11.18
2019-03-21T00:06:59.506Z,11.15
2019-03-21T00:11:55.348Z,11.19
2019-03-21T00:16:51.871Z,11.17
2019-03-21T00:21:47.549Z,11.08
2019-03-21T00:26:43.387Z,11.12
2019-03-21T00:31:40.129Z,11.12
2019-03-21T00:36:36.685Z,11.11
2019-03-21T00:41:33.190Z,10.99
2019-03-21T00:46:28.381Z,11.12
2019-03-21T00:51:24.183Z,11.05
2019-03-21T00:56:19.914Z,11.08
2019-03-21T01:01:15.735Z,11.14
2019-03-21T01:06:12.522Z,11.08
2019-03-21T01:11:08.949Z,11.10
2019-03-21T01:16:05.357Z,11.02
2019-03-21T01:21:01.178Z,11.07
2019-03-21T01:25:56.717Z,11.10
2019-03-21T01:30:52.664Z,11.08
2019-03-21T01:35:48.452Z,11.05
2019-03-21T01:40:45.854Z,10.93
2019-03-21T01:45:42.009Z,11.04
2019-03-21T01:50:38.699Z,11.00
2019-03-21T01:55:34.652Z,11.04
2019-03-21T02:00:30.293Z,11.02
2019-03-21T02:05:26.168Z,10.93
2019-03-21T02:10:22.295Z,10.79
2019-03-21T02:15:18.019Z,10.81
2019-03-21T02:20:13.834Z,10.89
2019-03-21T02:25:09.465Z,10.90
2019-03-21T02:30:06.226Z,10.86
2019-03-21T02:35:01.682Z,10.86
2019-03-21T02:40:00.024Z,10.89
2019-03-21T02:45:07.888Z,10.93
2019-03-21T02:49:54.334Z,10.89
2019-03-21T02:54:50.507Z,10.86
2019-03-21T02:59:46.158Z,10.84
2019-03-21T03:04:41.985Z,10.76
2019-03-21T03:09:38.687Z,10.74
2019-03-21T03:14:34.800Z,10.76
2019-03-21T03:19:31.741Z,10.71
2019-03-21T03:24:27.262Z,10.78
2019-03-21T03:29:23.674Z,10.76
2019-03-21T03:34:20.508Z,10.75
2019-03-21T03:39:16.335Z,10.71
2019-03-21T03:44:11.917Z,10.76
2019-03-21T03:49:07.638Z,10.76
2019-03-21T03:54:04.341Z,10.69
2019-03-21T03:58:59.846Z,10.63
2019-03-21T04:03:55.509Z,10.60
2019-03-21T04:08:51.613Z,10.53
2019-03-21T04:13:46.829Z,10.53
2019-03-21T04:18:43.542Z,10.51
2019-03-21T04:23:39.154Z,10.38
2019-03-21T04:28:34.751Z,10.51
2019-03-21T04:33:30.674Z,10.46
2019-03-21T04:38:27.384Z,10.41
2019-03-21T04:43:23.339Z,10.41
2019-03-21T04:48:19.010Z,10.40
2019-03-21T04:53:14.642Z,10.42
2019-03-21T04:58:10.578Z,10.41
2019-03-21T05:03:07.421Z,10.34
2019-03-21T05:08:02.921Z,10.35
2019-03-21T05:12:59.711Z,10.25
2019-03-21T05:17:54.911Z,10.30
2019-03-21T05:22:50.553Z,10.30
2019-03-21T05:27:46.231Z,10.13
2019-03-21T05:32:42.027Z,10.13
2019-03-21T05:37:37.637Z,10.05
2019-03-21T05:42:34.688Z,10.04
2019-03-21T05:47:31.122Z,10.05
2019-03-21T05:52:27.420Z,10.01
2019-03-21T05:57:22.809Z,10.07
2019-03-21T06:02:18.603Z,10.01
2019-03-21T06:07:14.433Z," 9.98"
2019-03-21T06:12:11.195Z,10.02
2019-03-21T06:17:06.802Z,10.09
2019-03-21T06:22:02.622Z,10.07
2019-03-21T06:26:59.418Z,10.05
2019-03-21T06:31:54.970Z,10.01
2019-03-21T06:36:50.802Z,10.07
2019-03-21T06:41:46.940Z,10.15
2019-03-21T06:46:49.353Z,10.12
2019-03-21T06:51:43.063Z,10.38
2019-03-21T06:56:39.221Z,10.96
2019-03-21T07:01:35.714Z,11.23
2019-03-21T07:06:32.282Z,11.32
2019-03-21T07:11:28.365Z,11.18
2019-03-21T07:16:24.118Z,11.11
2019-03-21T07:21:19.848Z,11.35
2019-03-21T07:26:16.379Z,11.52
2019-03-21T07:31:12.952Z,11.35
2019-03-21T07:36:08.947Z,11.41
2019-03-21T07:41:05.422Z,11.62
2019-03-21T07:46:01.077Z,11.65
2019-03-21T07:50:57.019Z,11.95
2019-03-21T07:55:52.750Z,12.24
2019-03-21T08:00:49.380Z,12.58
2019-03-21T08:05:45.789Z,12.76
2019-03-21T08:10:42.409Z,12.80
2019-03-21T08:15:40.106Z,12.85
2019-03-21T08:20:36.045Z,13.05
2019-03-21T08:25:32.183Z,13.22
2019-03-21T08:30:28.140Z,13.31
2019-03-21T08:35:24.115Z,13.38
2019-03-21T08:40:20.052Z,13.25
2019-03-21T08:45:16.003Z,13.47
2019-03-21T08:50:11.874Z,13.68
2019-03-21T08:55:08.598Z,13.63
2019-03-21T09:00:04.249Z,13.65
2019-03-21T09:05:00.059Z,13.68
2019-03-21T09:09:55.892Z,13.47
2019-03-21T09:14:51.667Z,13.81
2019-03-21T09:19:47.898Z,14.07
2019-03-21T09:24:44.777Z,14.11
2019-03-21T09:29:52.840Z,14.18
2019-03-21T09:34:40.407Z,14.33
2019-03-21T09:39:37.081Z,14.43
2019-03-21T09:44:33.157Z,14.50
2019-03-21T09:49:29.561Z,14.69
2019-03-21T09:54:25.661Z,14.86
2019-03-21T09:59:22.207Z,14.89
2019-03-21T10:04:18.082Z,15.04
2019-03-21T10:09:14.166Z,15.33
2019-03-21T10:14:09.962Z,15.18
2019-03-21T10:19:06.680Z,15.24
2019-03-21T10:24:03.082Z,15.36
2019-03-21T10:28:58.866Z,15.39
2019-03-21T10:33:55.069Z,15.65
2019-03-21T10:38:51.239Z,15.92
2019-03-21T10:43:48.154Z,15.86
2019-03-21T10:48:45.099Z,16.00
2019-03-21T10:53:41.972Z,16.32
2019-03-21T10:58:38.691Z,16.56
2019-03-21T11:03:34.734Z,17.05
2019-03-21T11:08:33.555Z,16.76
2019-03-21T11:13:28.966Z,16.36
2019-03-21T11:18:35.676Z,17.08
2019-03-21T11:23:26.623Z,17.48
2019-03-21T11:28:23.166Z,17.59
2019-03-21T11:33:20.296Z,17.80
2019-03-21T11:38:15.742Z,18.10
2019-03-21T11:43:11.771Z,18.20
2019-03-21T11:48:07.850Z,18.11
2019-03-21T11:53:05.036Z,18.22
2019-03-21T11:58:02.511Z,17.85
2019-03-21T12:02:59.093Z,17.76
2019-03-21T12:07:55.498Z,18.28
2019-03-21T12:12:51.211Z,18.68
2019-03-21T12:17:47.473Z,18.53
2019-03-21T12:22:43.431Z,18.92
2019-03-21T12:27:40.678Z,18.70
2019-03-21T12:32:36.300Z,18.41
2019-03-21T12:37:32.098Z,17.98
2019-03-21T12:42:27.764Z,17.95
2019-03-21T12:47:31.150Z,17.87
2019-03-21T12:52:22.126Z,18.04
2019-03-21T12:57:18.239Z,18.18
2019-03-21T13:02:15.710Z,17.85
2019-03-21T13:07:12.280Z,17.78
2019-03-21T13:12:08.718Z,18.11
2019-03-21T13:17:04.675Z,18.19
2019-03-21T13:22:00.946Z,18.33
2019-03-21T13:26:57.133Z,18.50
2019-03-21T13:31:53.439Z,18.43
2019-03-21T13:36:49.074Z,18.23
2019-03-21T13:41:44.823Z,18.23
2019-03-21T13:46:41.206Z,17.64
2019-03-21T13:51:36.398Z,17.82
2019-03-21T13:56:38.087Z,17.83
2019-03-21T14:01:31.340Z,18.01
2019-03-21T14:06:27.307Z,18.37
2019-03-21T14:11:23.549Z,18.49
2019-03-21T14:16:19.627Z,18.29
2019-03-21T14:21:15.496Z,18.25
2019-03-21T14:26:11.099Z,17.92
2019-03-21T14:31:06.835Z,17.79
2019-03-21T14:36:02.349Z,17.60
2019-03-21T14:40:58.253Z,17.60
2019-03-21T14:45:55.011Z,17.67
2019-03-21T14:50:50.066Z,17.59
2019-03-21T14:55:47.649Z,17.31
2019-03-21T15:00:42.886Z,17.27
2019-03-21T15:05:38.573Z,17.02
2019-03-21T15:10:34.986Z,16.90
2019-03-21T15:15:32.254Z,16.72
2019-03-21T15:20:27.440Z,16.93
2019-03-21T15:25:23.136Z,16.99
2019-03-21T15:30:19.257Z,16.84
2019-03-21T15:35:15.718Z,16.89
2019-03-21T15:40:12.516Z,16.87
2019-03-21T15:45:21.499Z,16.78
2019-03-21T15:50:07.061Z,16.74
2019-03-21T15:55:02.852Z,16.51
2019-03-21T15:59:58.270Z,16.64
2019-03-21T16:04:54.373Z,16.53
2019-03-21T16:09:53.572Z,16.47
2019-03-21T16:14:49.419Z,16.46
2019-03-21T16:19:45.011Z,16.43
2019-03-21T16:24:40.897Z,16.41
2019-03-21T16:29:37.688Z,16.36
2019-03-21T16:34:33.367Z,16.21
2019-03-21T16:39:30.165Z,16.09
2019-03-21T16:44:25.888Z,16.04
2019-03-21T16:49:21.278Z,15.97
2019-03-21T16:54:17.733Z,15.94
2019-03-21T16:59:14.487Z,15.76
2019-03-21T17:04:09.854Z,15.70
2019-03-21T17:09:05.709Z,15.62
2019-03-21T17:14:01.502Z,15.65
2019-03-21T17:18:57.002Z,15.51
2019-03-21T17:23:53.899Z,15.36
2019-03-21T17:28:49.160Z,15.29
2019-03-21T17:33:44.947Z,15.21
2019-03-21T17:38:41.745Z,15.21
2019-03-21T17:43:37.562Z,14.99
2019-03-21T17:48:33.382Z,14.91
2019-03-21T17:53:29.257Z,14.89
2019-03-21T17:58:24.851Z,14.81
2019-03-21T18:03:21.714Z,14.69
2019-03-21T18:08:16.780Z,14.63
2019-03-21T18:13:12.882Z,14.50
2019-03-21T18:18:08.576Z,14.41
2019-03-21T18:23:05.253Z,14.25
2019-03-21T18:28:00.638Z,14.29
2019-03-21T18:32:57.815Z,14.18
2019-03-21T18:37:54.002Z,14.00
2019-03-21T18:42:49.963Z,14.15
2019-03-21T18:47:45.727Z,13.86
2019-03-21T18:52:42.214Z,13.81
2019-03-21T18:57:38.183Z,13.71
2019-03-21T19:02:33.810Z,13.72
2019-03-21T19:07:29.406Z,13.60
2019-03-21T19:12:25.574Z,13.47
2019-03-21T19:17:22.327Z,13.42
2019-03-21T19:22:18.028Z,13.47
2019-03-21T19:27:14.153Z,13.37
2019-03-21T19:32:09.464Z,13.23
2019-03-21T19:37:06.718Z,13.20
2019-03-21T19:42:02.315Z,13.18
2019-03-21T19:46:58.009Z,13.16
2019-03-21T19:51:53.714Z,13.19
2019-03-21T19:56:50.632Z,12.98
2019-03-21T20:01:46.164Z,12.93
2019-03-21T20:06:41.882Z,12.90
2019-03-21T20:11:38.356Z,12.97
2019-03-21T20:16:33.946Z,12.91
2019-03-21T20:21:30.444Z,12.91
2019-03-21T20:26:26.106Z,12.83
2019-03-21T20:31:21.955Z,12.90
2019-03-21T20:36:18.760Z,12.86
2019-03-21T20:41:15.111Z,12.58
2019-03-21T20:46:10.755Z,12.57
2019-03-21T20:51:07.635Z,12.54
2019-03-21T20:56:03.032Z,12.46
2019-03-21T21:00:59.030Z,12.40
2019-03-21T21:05:54.858Z,12.46
2019-03-21T21:10:51.765Z,12.29
2019-03-21T21:15:46.931Z,12.28
2019-03-21T21:20:42.723Z,12.15
2019-03-21T21:25:38.464Z,12.06
2019-03-21T21:30:35.218Z,12.04
2019-03-21T21:35:31.522Z,12.06
2019-03-21T21:40:29.099Z,11.99
2019-03-21T21:45:26.565Z,11.95
2019-03-21T21:50:21.462Z,11.77
2019-03-21T21:55:17.137Z,11.72
2019-03-21T22:00:13.778Z,11.68
2019-03-21T22:05:10.218Z,11.62
2019-03-21T22:10:06.295Z,11.59
2019-03-21T22:15:01.897Z,11.48
2019-03-21T22:19:58.833Z,11.32
2019-03-21T22:24:54.281Z,11.23
2019-03-21T22:29:49.931Z,11.12
2019-03-21T22:34:45.856Z,11.19
2019-03-21T22:39:42.518Z,11.10
2019-03-21T22:44:38.118Z,11.02
2019-03-21T22:49:33.801Z,10.92
2019-03-21T22:54:29.736Z,10.81
2019-03-21T22:59:25.099Z,10.61
2019-03-21T23:04:21.561Z,10.67
2019-03-21T23:09:17.945Z,10.63
2019-03-21T23:14:13.718Z,10.37
2019-03-21T23:19:09.144Z,10.44
2019-03-21T23:24:05.400Z,10.34
2019-03-21T23:29:01.454Z,10.33
2019-03-21T23:33:57.021Z,10.34
2019-03-21T23:38:53.201Z,10.44
2019-03-21T23:43:49.613Z,10.34
2019-03-21T23:48:45.342Z,10.25
2019-03-21T23:53:41.696Z,10.09
2019-03-21T23:58:38.019Z,10.07
